sensor_id;sensor_type;location;lat;lon;timestamp;P1;durP1;ratioP1;P2;durP2;ratioP2
20729;SDS011;10526;50.850;12.928;2022-08-07T00:02:01;12.20;;;4.47;;
20729;SDS011;10526;50.850;12.928;2022-08-07T00:06:44;12.40;;;4.25;;
20729;SDS011;10526;50.850;12.928;2022-08-07T00:11:12;11.88;;;3.95;;
20729;SDS011;10526;50.850;12.928;2022-08-07T00:15:50;11.65;;;4.65;;
20729;SDS011;10526;50.850;12.928;2022-08-07T00:20:14;10.20;;;4.90;;
20729;SDS011;10526;50.850;12.928;2022-08-07T00:24:54;10.55;;;4.70;;
20729;SDS011;10526;50.850;12.928;2022-08-07T00:29:17;9.90;;;3.80;;
20729;SDS011;10526;50.850;12.928;2022-08-07T00:33:43;10.73;;;3.90;;
20729;SDS011;10526;50.850;12.928;2022-08-07T00:38:07;9.75;;;3.33;;
20729;SDS011;10526;50.850;12.928;2022-08-07T00:42:34;10.15;;;3.88;;
20729;SDS011;10526;50.850;12.928;2022-08-07T00:47:00;6.75;;;2.97;;
20729;SDS011;10526;50.850;12.928;2022-08-07T00:51:27;10.85;;;3.85;;
20729;SDS011;10526;50.850;12.928;2022-08-07T00:56:10;13.07;;;5.63;;
20729;SDS011;10526;50.850;12.928;2022-08-07T01:00:36;12.90;;;5.43;;
20729;SDS011;10526;50.850;12.928;2022-08-07T01:05:14;11.90;;;5.40;;
20729;SDS011;10526;50.850;12.928;2022-08-07T01:09:40;7.88;;;3.28;;
20729;SDS011;10526;50.850;12.928;2022-08-07T01:14:23;6.75;;;2.90;;
20729;SDS011;10526;50.850;12.928;2022-08-07T01:18:49;10.98;;;3.42;;
20729;SDS011;10526;50.850;12.928;2022-08-07T01:23:15;8.68;;;3.70;;
20729;SDS011;10526;50.850;12.928;2022-08-07T01:27:54;6.22;;;3.20;;
20729;SDS011;10526;50.850;12.928;2022-08-07T01:32:20;8.48;;;3.45;;
20729;SDS011;10526;50.850;12.928;2022-08-07T01:36:47;9.75;;;3.80;;
20729;SDS011;10526;50.850;12.928;2022-08-07T01:41:19;11.63;;;4.57;;
20729;SDS011;10526;50.850;12.928;2022-08-07T01:45:52;12.10;;;4.90;;
20729;SDS011;10526;50.850;12.928;2022-08-07T01:50:19;10.38;;;3.80;;
20729;SDS011;10526;50.850;12.928;2022-08-07T01:54:51;12.70;;;4.25;;
20729;SDS011;10526;50.850;12.928;2022-08-07T01:59:24;13.90;;;4.53;;
20729;SDS011;10526;50.850;12.928;2022-08-07T02:04:12;13.50;;;4.93;;
20729;SDS011;10526;50.850;12.928;2022-08-07T02:08:54;9.95;;;4.35;;
20729;SDS011;10526;50.850;12.928;2022-08-07T02:13:21;11.50;;;3.72;;
20729;SDS011;10526;50.850;12.928;2022-08-07T02:18:09;14.70;;;5.38;;
20729;SDS011;10526;50.850;12.928;2022-08-07T02:22:37;10.05;;;4.03;;
20729;SDS011;10526;50.850;12.928;2022-08-07T02:27:04;11.52;;;4.18;;
20729;SDS011;10526;50.850;12.928;2022-08-07T02:31:27;10.95;;;4.50;;
20729;SDS011;10526;50.850;12.928;2022-08-07T02:35:53;9.82;;;4.20;;
20729;SDS011;10526;50.850;12.928;2022-08-07T02:40:36;8.75;;;3.95;;
20729;SDS011;10526;50.850;12.928;2022-08-07T02:45:02;9.27;;;3.88;;
20729;SDS011;10526;50.850;12.928;2022-08-07T02:49:49;16.30;;;3.63;;
20729;SDS011;10526;50.850;12.928;2022-08-07T02:54:22;13.23;;;4.85;;
20729;SDS011;10526;50.850;12.928;2022-08-07T02:58:50;12.98;;;4.68;;
20729;SDS011;10526;50.850;12.928;2022-08-07T03:03:16;10.50;;;4.63;;
20729;SDS011;10526;50.850;12.928;2022-08-07T03:07:45;10.25;;;4.07;;
20729;SDS011;10526;50.850;12.928;2022-08-07T03:12:30;9.27;;;4.28;;
20729;SDS011;10526;50.850;12.928;2022-08-07T03:17:01;8.38;;;3.75;;
20729;SDS011;10526;50.850;12.928;2022-08-07T03:21:30;9.60;;;3.63;;
20729;SDS011;10526;50.850;12.928;2022-08-07T03:25:55;10.32;;;4.22;;
20729;SDS011;10526;50.850;12.928;2022-08-07T03:30:22;10.05;;;3.70;;
20729;SDS011;10526;50.850;12.928;2022-08-07T03:34:48;10.85;;;4.43;;
20729;SDS011;10526;50.850;12.928;2022-08-07T03:39:33;7.82;;;3.80;;
20729;SDS011;10526;50.850;12.928;2022-08-07T03:44:17;12.32;;;6.00;;
20729;SDS011;10526;50.850;12.928;2022-08-07T03:48:55;7.82;;;3.80;;
20729;SDS011;10526;50.850;12.928;2022-08-07T03:53:31;6.80;;;3.63;;
20729;SDS011;10526;50.850;12.928;2022-08-07T03:58:15;10.32;;;3.72;;
20729;SDS011;10526;50.850;12.928;2022-08-07T04:03:00;9.20;;;4.20;;
20729;SDS011;10526;50.850;12.928;2022-08-07T04:07:34;7.93;;;3.50;;
20729;SDS011;10526;50.850;12.928;2022-08-07T04:12:08;6.93;;;3.05;;
20729;SDS011;10526;50.850;12.928;2022-08-07T04:16:46;26.48;;;12.18;;
20729;SDS011;10526;50.850;12.928;2022-08-07T04:21:20;6.45;;;2.50;;
20729;SDS011;10526;50.850;12.928;2022-08-07T04:25:45;3.30;;;1.70;;
20729;SDS011;10526;50.850;12.928;2022-08-07T04:30:10;3.58;;;1.77;;
20729;SDS011;10526;50.850;12.928;2022-08-07T04:34:58;8.82;;;1.85;;
20729;SDS011;10526;50.850;12.928;2022-08-07T04:39:28;3.13;;;1.52;;
20729;SDS011;10526;50.850;12.928;2022-08-07T04:43:58;5.68;;;1.77;;
20729;SDS011;10526;50.850;12.928;2022-08-07T04:49:01;2.90;;;1.63;;
20729;SDS011;10526;50.850;12.928;2022-08-07T04:53:58;4.13;;;1.50;;
20729;SDS011;10526;50.850;12.928;2022-08-07T04:59:01;3.10;;;1.42;;
20729;SDS011;10526;50.850;12.928;2022-08-07T05:03:58;3.25;;;1.48;;
20729;SDS011;10526;50.850;12.928;2022-08-07T05:08:43;9.98;;;3.55;;
20729;SDS011;10526;50.850;12.928;2022-08-07T05:13:38;3.20;;;1.23;;
20729;SDS011;10526;50.850;12.928;2022-08-07T05:18:53;4.38;;;1.35;;
20729;SDS011;10526;50.850;12.928;2022-08-07T05:23:24;4.00;;;1.30;;
20729;SDS011;10526;50.850;12.928;2022-08-07T05:28:03;4.57;;;1.40;;
20729;SDS011;10526;50.850;12.928;2022-08-07T05:32:41;3.45;;;1.58;;
20729;SDS011;10526;50.850;12.928;2022-08-07T05:37:08;2.75;;;1.50;;
20729;SDS011;10526;50.850;12.928;2022-08-07T05:41:43;5.55;;;1.52;;
20729;SDS011;10526;50.850;12.928;2022-08-07T05:46:25;3.00;;;1.33;;
20729;SDS011;10526;50.850;12.928;2022-08-07T05:50:51;4.07;;;1.80;;
20729;SDS011;10526;50.850;12.928;2022-08-07T05:55:14;4.45;;;1.60;;
20729;SDS011;10526;50.850;12.928;2022-08-07T05:59:39;3.17;;;1.27;;
20729;SDS011;10526;50.850;12.928;2022-08-07T06:04:21;2.17;;;1.23;;
20729;SDS011;10526;50.850;12.928;2022-08-07T06:08:51;1.33;;;1.08;;
20729;SDS011;10526;50.850;12.928;2022-08-07T06:13:16;3.13;;;1.17;;
20729;SDS011;10526;50.850;12.928;2022-08-07T06:17:41;3.40;;;1.33;;
20729;SDS011;10526;50.850;12.928;2022-08-07T06:22:17;3.42;;;1.20;;
20729;SDS011;10526;50.850;12.928;2022-08-07T06:27:20;2.13;;;0.90;;
20729;SDS011;10526;50.850;12.928;2022-08-07T06:32:05;1.98;;;0.98;;
20729;SDS011;10526;50.850;12.928;2022-08-07T06:36:28;2.25;;;1.10;;
20729;SDS011;10526;50.850;12.928;2022-08-07T06:40:58;1.98;;;1.10;;
20729;SDS011;10526;50.850;12.928;2022-08-07T06:45:27;2.80;;;1.02;;
20729;SDS011;10526;50.850;12.928;2022-08-07T06:49:55;1.95;;;1.13;;
20729;SDS011;10526;50.850;12.928;2022-08-07T06:54:26;1.88;;;0.70;;
20729;SDS011;10526;50.850;12.928;2022-08-07T07:04:09;4.40;;;1.00;;
20729;SDS011;10526;50.850;12.928;2022-08-07T07:08:52;1.73;;;1.20;;
20729;SDS011;10526;50.850;12.928;2022-08-07T07:13:18;1.48;;;0.90;;
20729;SDS011;10526;50.850;12.928;2022-08-07T07:23:08;7.53;;;2.50;;
20729;SDS011;10526;50.850;12.928;2022-08-07T07:27:58;6.25;;;2.20;;
20729;SDS011;10526;50.850;12.928;2022-08-07T07:32:55;2.05;;;0.88;;
20729;SDS011;10526;50.850;12.928;2022-08-07T07:37:21;3.72;;;0.90;;
20729;SDS011;10526;50.850;12.928;2022-08-07T07:42:09;1.85;;;1.10;;
20729;SDS011;10526;50.850;12.928;2022-08-07T07:46:40;2.33;;;0.75;;
20729;SDS011;10526;50.850;12.928;2022-08-07T07:51:21;1.33;;;0.60;;
20729;SDS011;10526;50.850;12.928;2022-08-07T07:55:47;2.45;;;0.50;;
20729;SDS011;10526;50.850;12.928;2022-08-07T08:00:20;3.30;;;1.05;;
20729;SDS011;10526;50.850;12.928;2022-08-07T08:04:54;1.75;;;0.88;;
20729;SDS011;10526;50.850;12.928;2022-08-07T08:09:20;1.65;;;0.63;;
20729;SDS011;10526;50.850;12.928;2022-08-07T08:13:49;2.97;;;0.63;;
20729;SDS011;10526;50.850;12.928;2022-08-07T08:18:16;2.38;;;0.60;;
20729;SDS011;10526;50.850;12.928;2022-08-07T08:22:40;2.10;;;0.60;;
20729;SDS011;10526;50.850;12.928;2022-08-07T08:27:31;2.05;;;0.50;;
20729;SDS011;10526;50.850;12.928;2022-08-07T08:31:58;2.70;;;0.80;;
20729;SDS011;10526;50.850;12.928;2022-08-07T08:36:39;2.00;;;0.35;;
20729;SDS011;10526;50.850;12.928;2022-08-07T08:51:51;2.85;;;0.73;;
20729;SDS011;10526;50.850;12.928;2022-08-07T08:56:39;2.60;;;1.17;;
20729;SDS011;10526;50.850;12.928;2022-08-07T09:01:12;2.22;;;1.02;;
20729;SDS011;10526;50.850;12.928;2022-08-07T09:06:18;3.92;;;1.15;;
20729;SDS011;10526;50.850;12.928;2022-08-07T09:16:17;6.20;;;0.60;;
20729;SDS011;10526;50.850;12.928;2022-08-07T09:21:07;1.40;;;0.70;;
20729;SDS011;10526;50.850;12.928;2022-08-07T09:31:19;4.50;;;1.10;;
20729;SDS011;10526;50.850;12.928;2022-08-07T09:36:23;2.97;;;0.90;;
20729;SDS011;10526;50.850;12.928;2022-08-07T10:27:44;0.98;;;0.60;;
20729;SDS011;10526;50.850;12.928;2022-08-07T10:47:23;1.48;;;0.57;;
20729;SDS011;10526;50.850;12.928;2022-08-07T10:52:27;1.75;;;0.40;;
20729;SDS011;10526;50.850;12.928;2022-08-07T11:12:31;0.93;;;0.35;;
20729;SDS011;10526;50.850;12.928;2022-08-07T11:17:09;7.18;;;3.20;;
20729;SDS011;10526;50.850;12.928;2022-08-07T11:27:09;3.00;;;0.70;;
20729;SDS011;10526;50.850;12.928;2022-08-07T11:32:17;1.50;;;0.60;;
20729;SDS011;10526;50.850;12.928;2022-08-07T11:37:12;2.35;;;0.88;;
20729;SDS011;10526;50.850;12.928;2022-08-07T11:42:12;0.65;;;0.50;;
20729;SDS011;10526;50.850;12.928;2022-08-07T11:46:57;3.88;;;1.05;;
20729;SDS011;10526;50.850;12.928;2022-08-07T11:52:38;1.42;;;0.60;;
20729;SDS011;10526;50.850;12.928;2022-08-07T12:07:55;2.60;;;0.57;;
20729;SDS011;10526;50.850;12.928;2022-08-07T12:12:59;2.75;;;0.98;;
20729;SDS011;10526;50.850;12.928;2022-08-07T12:18:07;0.95;;;0.63;;
20729;SDS011;10526;50.850;12.928;2022-08-07T12:23:30;1.48;;;0.52;;
20729;SDS011;10526;50.850;12.928;2022-08-07T12:29:19;0.70;;;0.50;;
20729;SDS011;10526;50.850;12.928;2022-08-07T12:34:00;5.13;;;0.77;;
20729;SDS011;10526;50.850;12.928;2022-08-07T12:38:31;5.97;;;1.13;;
20729;SDS011;10526;50.850;12.928;2022-08-07T12:43:04;3.97;;;0.80;;
20729;SDS011;10526;50.850;12.928;2022-08-07T12:47:40;3.72;;;0.73;;
20729;SDS011;10526;50.850;12.928;2022-08-07T12:56:55;3.00;;;0.73;;
20729;SDS011;10526;50.850;12.928;2022-08-07T13:06:58;3.70;;;0.70;;
20729;SDS011;10526;50.850;12.928;2022-08-07T13:17:23;2.88;;;0.70;;
20729;SDS011;10526;50.850;12.928;2022-08-07T13:22:24;2.65;;;0.80;;
20729;SDS011;10526;50.850;12.928;2022-08-07T13:27:15;4.53;;;1.65;;
20729;SDS011;10526;50.850;12.928;2022-08-07T13:42:19;1.27;;;0.60;;
20729;SDS011;10526;50.850;12.928;2022-08-07T13:46:46;1.67;;;0.70;;
20729;SDS011;10526;50.850;12.928;2022-08-07T13:51:14;1.08;;;0.70;;
20729;SDS011;10526;50.850;12.928;2022-08-07T13:55:59;2.47;;;1.05;;
20729;SDS011;10526;50.850;12.928;2022-08-07T14:00:27;2.67;;;0.80;;
20729;SDS011;10526;50.850;12.928;2022-08-07T14:05:14;3.05;;;0.80;;
20729;SDS011;10526;50.850;12.928;2022-08-07T14:09:43;3.35;;;0.90;;
20729;SDS011;10526;50.850;12.928;2022-08-07T14:14:29;3.72;;;0.88;;
20729;SDS011;10526;50.850;12.928;2022-08-07T14:19:04;1.80;;;0.80;;
20729;SDS011;10526;50.850;12.928;2022-08-07T14:24:01;5.85;;;2.25;;
20729;SDS011;10526;50.850;12.928;2022-08-07T14:28:29;3.58;;;0.85;;
20729;SDS011;10526;50.850;12.928;2022-08-07T14:33:13;2.35;;;0.93;;
20729;SDS011;10526;50.850;12.928;2022-08-07T14:37:44;4.28;;;0.80;;
20729;SDS011;10526;50.850;12.928;2022-08-07T14:42:26;3.25;;;1.00;;
20729;SDS011;10526;50.850;12.928;2022-08-07T14:46:55;2.22;;;0.90;;
20729;SDS011;10526;50.850;12.928;2022-08-07T14:51:38;2.88;;;0.73;;
20729;SDS011;10526;50.850;12.928;2022-08-07T14:56:25;3.17;;;1.23;;
20729;SDS011;10526;50.850;12.928;2022-08-07T15:00:52;2.35;;;0.90;;
20729;SDS011;10526;50.850;12.928;2022-08-07T15:05:19;1.20;;;0.70;;
20729;SDS011;10526;50.850;12.928;2022-08-07T15:09:43;1.05;;;0.70;;
20729;SDS011;10526;50.850;12.928;2022-08-07T15:14:28;1.77;;;0.63;;
20729;SDS011;10526;50.850;12.928;2022-08-07T15:18:53;5.10;;;0.93;;
20729;SDS011;10526;50.850;12.928;2022-08-07T15:23:39;4.57;;;0.80;;
20729;SDS011;10526;50.850;12.928;2022-08-07T15:28:26;2.33;;;1.00;;
20729;SDS011;10526;50.850;12.928;2022-08-07T15:33:05;3.42;;;0.65;;
20729;SDS011;10526;50.850;12.928;2022-08-07T15:37:48;1.92;;;0.70;;
20729;SDS011;10526;50.850;12.928;2022-08-07T15:47:12;2.72;;;0.65;;
20729;SDS011;10526;50.850;12.928;2022-08-07T15:51:39;2.70;;;1.17;;
20729;SDS011;10526;50.850;12.928;2022-08-07T15:56:18;0.88;;;0.65;;
20729;SDS011;10526;50.850;12.928;2022-08-07T16:00:56;0.80;;;0.80;;
20729;SDS011;10526;50.850;12.928;2022-08-07T16:05:20;2.33;;;0.80;;
20729;SDS011;10526;50.850;12.928;2022-08-07T16:09:52;1.80;;;0.93;;
20729;SDS011;10526;50.850;12.928;2022-08-07T16:24:26;12.98;;;0.80;;
20729;SDS011;10526;50.850;12.928;2022-08-07T16:29:15;1.15;;;0.60;;
20729;SDS011;10526;50.850;12.928;2022-08-07T16:39:31;2.28;;;0.77;;
20729;SDS011;10526;50.850;12.928;2022-08-07T16:54:57;2.50;;;0.90;;
20729;SDS011;10526;50.850;12.928;2022-08-07T16:59:39;3.42;;;1.50;;
20729;SDS011;10526;50.850;12.928;2022-08-07T17:04:34;4.38;;;1.00;;
20729;SDS011;10526;50.850;12.928;2022-08-07T17:14:24;3.72;;;0.80;;
20729;SDS011;10526;50.850;12.928;2022-08-07T17:19:20;3.38;;;1.00;;
20729;SDS011;10526;50.850;12.928;2022-08-07T17:34:41;4.88;;;1.15;;
20729;SDS011;10526;50.850;12.928;2022-08-07T17:39:51;1.10;;;0.70;;
20729;SDS011;10526;50.850;12.928;2022-08-07T17:44:39;5.00;;;1.00;;
20729;SDS011;10526;50.850;12.928;2022-08-07T17:49:20;5.03;;;0.70;;
20729;SDS011;10526;50.850;12.928;2022-08-07T17:54:02;2.40;;;1.15;;
20729;SDS011;10526;50.850;12.928;2022-08-07T17:59:00;2.35;;;1.00;;
20729;SDS011;10526;50.850;12.928;2022-08-07T18:04:04;1.85;;;1.00;;
20729;SDS011;10526;50.850;12.928;2022-08-07T18:09:00;2.80;;;0.93;;
20729;SDS011;10526;50.850;12.928;2022-08-07T18:18:19;2.78;;;1.08;;
20729;SDS011;10526;50.850;12.928;2022-08-07T18:23:16;1.92;;;0.80;;
20729;SDS011;10526;50.850;12.928;2022-08-07T18:49:59;5.05;;;1.48;;
20729;SDS011;10526;50.850;12.928;2022-08-07T18:55:10;2.45;;;1.10;;
20729;SDS011;10526;50.850;12.928;2022-08-07T19:00:07;1.92;;;0.98;;
20729;SDS011;10526;50.850;12.928;2022-08-07T19:10:19;2.13;;;0.85;;
20729;SDS011;10526;50.850;12.928;2022-08-07T19:20:00;3.35;;;1.58;;
20729;SDS011;10526;50.850;12.928;2022-08-07T19:24:50;4.65;;;2.10;;
20729;SDS011;10526;50.850;12.928;2022-08-07T19:29:14;24.10;;;10.75;;
20729;SDS011;10526;50.850;12.928;2022-08-07T19:33:58;3.40;;;1.38;;
20729;SDS011;10526;50.850;12.928;2022-08-07T19:38:28;6.75;;;1.80;;
20729;SDS011;10526;50.850;12.928;2022-08-07T19:43:17;8.48;;;1.70;;
20729;SDS011;10526;50.850;12.928;2022-08-07T19:48:06;3.33;;;1.42;;
20729;SDS011;10526;50.850;12.928;2022-08-07T19:52:44;7.20;;;2.00;;
20729;SDS011;10526;50.850;12.928;2022-08-07T19:57:26;5.38;;;1.83;;
20729;SDS011;10526;50.850;12.928;2022-08-07T20:02:30;13.30;;;2.70;;
20729;SDS011;10526;50.850;12.928;2022-08-07T20:07:13;4.25;;;1.48;;
20729;SDS011;10526;50.850;12.928;2022-08-07T20:11:56;10.25;;;1.45;;
20729;SDS011;10526;50.850;12.928;2022-08-07T20:16:39;2.15;;;1.10;;
20729;SDS011;10526;50.850;12.928;2022-08-07T20:21:05;4.13;;;1.30;;
20729;SDS011;10526;50.850;12.928;2022-08-07T20:25:41;3.42;;;1.27;;
20729;SDS011;10526;50.850;12.928;2022-08-07T20:30:13;4.55;;;1.55;;
20729;SDS011;10526;50.850;12.928;2022-08-07T20:34:42;4.07;;;1.58;;
20729;SDS011;10526;50.850;12.928;2022-08-07T20:39:19;6.70;;;1.67;;
20729;SDS011;10526;50.850;12.928;2022-08-07T20:44:08;5.45;;;1.70;;
20729;SDS011;10526;50.850;12.928;2022-08-07T20:48:33;5.93;;;1.70;;
20729;SDS011;10526;50.850;12.928;2022-08-07T20:52:58;4.53;;;1.65;;
20729;SDS011;10526;50.850;12.928;2022-08-07T20:57:23;2.40;;;1.40;;
20729;SDS011;10526;50.850;12.928;2022-08-07T21:01:49;4.57;;;1.30;;
20729;SDS011;10526;50.850;12.928;2022-08-07T21:06:20;6.53;;;1.50;;
20729;SDS011;10526;50.850;12.928;2022-08-07T21:10:51;3.28;;;1.50;;
20729;SDS011;10526;50.850;12.928;2022-08-07T21:15:22;4.15;;;1.40;;
20729;SDS011;10526;50.850;12.928;2022-08-07T21:20:11;3.42;;;1.40;;
20729;SDS011;10526;50.850;12.928;2022-08-07T21:30:03;8.73;;;1.55;;
20729;SDS011;10526;50.850;12.928;2022-08-07T21:34:46;1.90;;;1.20;;
20729;SDS011;10526;50.850;12.928;2022-08-07T21:39:43;2.47;;;1.20;;
20729;SDS011;10526;50.850;12.928;2022-08-07T21:49:57;3.78;;;1.35;;
20729;SDS011;10526;50.850;12.928;2022-08-07T21:54:48;3.90;;;1.63;;
20729;SDS011;10526;50.850;12.928;2022-08-07T21:59:59;7.03;;;1.83;;
20729;SDS011;10526;50.850;12.928;2022-08-07T22:04:44;4.63;;;1.60;;
20729;SDS011;10526;50.850;12.928;2022-08-07T22:09:18;4.18;;;1.40;;
20729;SDS011;10526;50.850;12.928;2022-08-07T22:13:46;5.70;;;1.45;;
20729;SDS011;10526;50.850;12.928;2022-08-07T22:28:15;4.28;;;1.70;;
20729;SDS011;10526;50.850;12.928;2022-08-07T22:33:14;3.05;;;1.50;;
20729;SDS011;10526;50.850;12.928;2022-08-07T22:42:45;3.40;;;1.50;;
20729;SDS011;10526;50.850;12.928;2022-08-07T22:57:20;3.17;;;1.73;;
20729;SDS011;10526;50.850;12.928;2022-08-07T23:07:46;7.72;;;2.65;;
20729;SDS011;10526;50.850;12.928;2022-08-07T23:28:16;4.63;;;1.77;;
20729;SDS011;10526;50.850;12.928;2022-08-07T23:38:00;3.92;;;1.77;;
20729;SDS011;10526;50.850;12.928;2022-08-07T23:53:04;4.10;;;1.88;;
20729;SDS011;10526;50.850;12.928;2022-08-07T23:58:06;4.05;;;1.88;;
